createdAt,value
2019-04-20T00:00:17.031Z,60.5051
2019-04-20T00:01:05.221Z,55.8312
2019-04-20T00:01:52.709Z,55.1232
2019-04-20T00:02:44.062Z,60.3510
2019-04-20T00:03:39.050Z,59.3347
2019-04-20T00:04:29.006Z,58.3307
2019-04-20T00:05:17.130Z,56.9497
2019-04-20T00:06:03.586Z,58.0148
2019-04-20T00:06:52.827Z,57.9431
2019-04-20T00:07:41.832Z,56.1700
2019-04-20T00:08:32.805Z,53.6202
2019-04-20T00:09:24.692Z,52.6268
2019-04-20T00:10:16.993Z,52.7596
2019-04-20T00:11:10.673Z,56.1395
2019-04-20T00:12:03.876Z,55.9548
2019-04-20T00:12:59.708Z,57.8912
2019-04-20T00:13:48.720Z,61.7365
2019-04-20T00:14:33.800Z,62.0539
2019-04-20T00:15:22.138Z,58.5565
2019-04-20T00:16:08.552Z,59.1043
2019-04-20T00:16:55.054Z,59.2828
2019-04-20T00:17:50.842Z,59.5895
2019-04-20T00:18:41.296Z,59.9283
2019-04-20T00:19:32.227Z,59.0082
2019-04-20T00:20:23.516Z,58.7076
2019-04-20T00:21:12.596Z,56.1120
2019-04-20T00:22:06.227Z,58.6847
2019-04-20T00:22:54.099Z,61.4588
2019-04-20T00:23:45.203Z,59.2020
2019-04-20T00:24:36.918Z,63.7919
2019-04-20T00:25:38.614Z,66.2318
2019-04-20T00:26:32.306Z,67.4601
2019-04-20T00:27:32.870Z,65.5680
2019-04-20T00:28:19.482Z,62.1958
2019-04-20T00:29:14.341Z,61.9974
2019-04-20T00:29:58.711Z,60.7584
2019-04-20T00:30:53.323Z,61.4816
2019-04-20T00:31:43.069Z,62.8641
2019-04-20T00:32:39.683Z,66.2058
2019-04-20T00:33:27.110Z,66.4836
2019-04-20T00:34:11.969Z,61.0956
2019-04-20T00:34:55.886Z,59.2187
2019-04-20T00:35:42.269Z,58.9258
2019-04-20T00:36:29.090Z,59.5804
2019-04-20T00:37:16.993Z,62.9084
2019-04-20T00:38:03.460Z,60.3784
2019-04-20T00:38:50.042Z,62.1164
2019-04-20T00:39:36.019Z,61.7929
2019-04-20T00:40:23.686Z,62.4567
2019-04-20T00:41:13.684Z,61.8738
2019-04-20T00:42:06.559Z,58.7259
2019-04-20T00:42:57.963Z,57.5128
2019-04-20T00:43:47.183Z,63.0793
2019-04-20T00:44:38.105Z,62.3270
2019-04-20T00:45:30.568Z,61.1246
2019-04-20T00:46:26.434Z,58.6648
2019-04-20T00:47:22.967Z,58.8983
2019-04-20T00:48:07.985Z,58.3917
2019-04-20T00:49:01.641Z,57.5082
2019-04-20T00:49:58.028Z,56.1669
2019-04-20T00:50:48.722Z,54.9569
2019-04-20T00:51:45.551Z,55.3460
2019-04-20T00:52:33.125Z,56.2173
2019-04-20T00:53:20.410Z,55.9319
2019-04-20T00:54:03.993Z,56.3317
2019-04-20T00:54:51.803Z,57.3648
2019-04-20T00:55:38.130Z,55.8862
2019-04-20T00:56:24.560Z,54.2351
2019-04-20T00:57:20.336Z,53.7774
2019-04-20T00:58:13.309Z,54.9035
2019-04-20T00:59:12.010Z,56.9131
2019-04-20T01:00:09.287Z,58.3398
2019-04-20T01:01:04.089Z,57.1054
2019-04-20T01:01:47.578Z,55.9274
2019-04-20T01:02:37.106Z,54.3725
2019-04-20T01:03:29.213Z,53.5790
2019-04-20T01:04:20.304Z,54.3114
2019-04-20T01:05:11.016Z,54.2199
2019-04-20T01:06:09.717Z,54.9218
2019-04-20T01:06:53.908Z,57.8546
2019-04-20T01:07:39.522Z,60.7355
2019-04-20T01:08:23.366Z,55.6847
2019-04-20T01:09:09.967Z,58.6709
2019-04-20T01:09:56.379Z,57.8286
2019-04-20T01:10:47.224Z,54.0093
2019-04-20T01:11:39.797Z,62.0569
2019-04-20T01:12:31.406Z,60.6302
2019-04-20T01:13:22.849Z,54.5541
2019-04-20T01:14:12.823Z,60.4776
2019-04-20T01:15:05.875Z,61.1048
2019-04-20T01:16:01.003Z,58.3947
2019-04-20T01:16:52.930Z,55.2468
2019-04-20T01:17:37.969Z,54.3404
2019-04-20T01:18:27.837Z,54.5785
2019-04-20T01:19:15.818Z,53.4981
2019-04-20T01:20:04.518Z,60.1846
2019-04-20T01:20:51.497Z,59.9161
2019-04-20T01:21:38.362Z,60.1129
2019-04-20T01:22:28.362Z,60.6424
2019-04-20T01:23:19.417Z,59.3469
2019-04-20T01:24:08.842Z,57.0672
2019-04-20T01:25:06.582Z,60.2579
2019-04-20T01:25:55.824Z,62.6764
2019-04-20T01:26:43.688Z,62.6337
2019-04-20T01:27:51.521Z,61.6648
2019-04-20T01:28:37.300Z,64.1993
2019-04-20T01:29:26.152Z,61.6724
2019-04-20T01:30:17.422Z,57.6593
2019-04-20T01:31:16.599Z,57.3968
2019-04-20T01:32:06.160Z,59.8505
2019-04-20T01:33:12.495Z,54.2565
2019-04-20T01:33:46.154Z,60.5570
2019-04-20T01:34:41.414Z,61.9532
2019-04-20T01:35:35.614Z,61.7243
2019-04-20T01:36:32.995Z,62.9175
2019-04-20T01:37:17.908Z,64.2191
2019-04-20T01:38:11.290Z,65.0568
2019-04-20T01:38:59.918Z,66.8284
2019-04-20T01:39:43.191Z,62.8443
2019-04-20T01:40:27.852Z,62.2187
2019-04-20T01:41:16.127Z,64.0253
2019-04-20T01:42:04.469Z,63.2624
2019-04-20T01:42:51.275Z,57.4517
2019-04-20T01:43:37.599Z,56.2860
2019-04-20T01:44:31.728Z,63.0732
2019-04-20T01:45:23.498Z,56.9818
2019-04-20T01:46:14.692Z,61.9669
2019-04-20T01:47:03.162Z,63.5554
2019-04-20T01:47:55.868Z,63.7095
2019-04-20T01:48:44.620Z,64.8188
2019-04-20T01:49:33.925Z,63.5828
2019-04-20T01:50:27.584Z,62.3728
2019-04-20T01:51:21.212Z,64.4892
2019-04-20T01:52:16.285Z,64.6082
2019-04-20T01:53:09.979Z,63.3768
2019-04-20T01:55:10.245Z,65.5314
2019-04-20T01:55:53.054Z,66.5858
2019-04-20T01:56:40.470Z,68.7038
2019-04-20T01:57:26.162Z,61.3809
2019-04-20T01:58:30.204Z,63.2303
2019-04-20T01:59:16.373Z,62.0813
2019-04-20T02:00:05.313Z,63.6057
2019-04-20T02:00:48.109Z,67.7882
2019-04-20T02:01:40.549Z,64.5487
2019-04-20T02:02:29.569Z,63.3570
2019-04-20T02:03:17.191Z,58.7060
2019-04-20T02:04:05.501Z,60.8988
2019-04-20T02:04:58.861Z,60.3128
2019-04-20T02:05:53.031Z,60.6714
2019-04-20T02:06:44.381Z,64.2328
2019-04-20T02:07:35.491Z,69.2988
2019-04-20T02:08:24.315Z,68.9418
2019-04-20T02:09:18.660Z,69.6422
2019-04-20T02:10:08.314Z,70.9300
2019-04-20T02:10:59.218Z,68.5176
2019-04-20T02:11:51.791Z,61.7868
2019-04-20T02:12:40.866Z,61.8555
2019-04-20T02:13:36.165Z,63.2303
2019-04-20T02:14:28.705Z,64.8676
2019-04-20T02:15:22.127Z,67.8569
2019-04-20T02:16:14.497Z,68.8960
2019-04-20T02:17:08.645Z,63.0930
2019-04-20T02:18:03.346Z,61.0239
2019-04-20T02:18:53.856Z,62.4094
2019-04-20T02:19:52.428Z,57.9248
2019-04-20T02:20:45.865Z,66.9886
2019-04-20T02:21:34.283Z,64.2542
2019-04-20T02:22:26.222Z,64.2191
2019-04-20T02:23:10.585Z,62.9465
2019-04-20T02:23:57.353Z,63.6683
2019-04-20T02:24:42.615Z,62.4369
2019-04-20T02:25:29.139Z,62.1988
2019-04-20T02:26:15.986Z,64.1901
2019-04-20T02:27:02.389Z,59.6094
2019-04-20T02:27:54.946Z,53.8689
2019-04-20T02:29:07.708Z,62.4704
2019-04-20T02:29:50.259Z,60.4791
2019-04-20T02:31:23.090Z,63.7781
2019-04-20T02:32:06.648Z,61.9303
2019-04-20T02:32:36.273Z,65.1148
2019-04-20T02:33:42.464Z,68.5023
2019-04-20T02:34:28.513Z,64.1093
2019-04-20T02:35:36.712Z,70.1473
2019-04-20T02:36:20.858Z,69.9550
2019-04-20T02:37:08.879Z,65.9068
2019-04-20T02:39:05.193Z,68.5527
2019-04-20T02:40:47.535Z,66.0716
2019-04-20T02:41:18.120Z,71.3283
2019-04-20T02:44:09.886Z,70.8141
2019-04-20T02:44:50.023Z,69.5689
2019-04-20T02:46:34.629Z,70.5028
2019-04-20T02:47:35.046Z,70.1228
2019-04-20T02:48:14.062Z,68.0461
2019-04-20T02:49:10.120Z,69.2363
2019-04-20T02:49:59.180Z,71.8761
2019-04-20T02:50:50.191Z,71.2596
2019-04-20T02:51:47.623Z,73.0632
2019-04-20T02:52:38.217Z,70.9392
2019-04-20T02:53:33.029Z,65.4673
2019-04-20T02:55:14.515Z,67.9957
2019-04-20T02:56:06.606Z,67.2953
2019-04-20T02:57:00.659Z,74.3709
2019-04-20T02:58:41.961Z,73.0358
2019-04-20T03:01:07.078Z,73.0449
2019-04-20T03:01:53.491Z,74.5907
2019-04-20T03:02:41.189Z,76.5896
2019-04-20T03:03:26.738Z,75.8663
2019-04-20T03:04:20.286Z,73.2738
2019-04-20T03:05:13.676Z,71.4961
2019-04-20T03:06:04.452Z,70.9575
2019-04-20T03:06:59.392Z,67.2618
2019-04-20T03:07:57.616Z,69.8940
2019-04-20T03:08:47.573Z,72.5505
2019-04-20T03:09:39.986Z,72.3857
2019-04-20T03:10:34.278Z,75.1095
2019-04-20T03:11:32.496Z,74.0185
2019-04-20T03:12:18.742Z,69.5048
2019-04-20T03:13:09.803Z,74.8196
2019-04-20T03:13:57.816Z,70.4723
2019-04-20T03:14:44.742Z,67.1656
2019-04-20T03:15:41.805Z,66.9230
2019-04-20T03:16:31.661Z,65.7374
2019-04-20T03:17:27.262Z,69.8985
2019-04-20T03:18:13.882Z,68.8457
2019-04-20T03:19:03.053Z,68.7236
2019-04-20T03:19:52.539Z,67.0558
2019-04-20T03:20:53.423Z,75.3216
2019-04-20T03:21:47.948Z,71.3558
2019-04-20T03:23:01.068Z,69.7017
2019-04-20T03:23:31.168Z,64.5991
2019-04-20T03:24:26.591Z,69.2119
2019-04-20T03:25:13.540Z,64.8676
2019-04-20T03:26:05.389Z,65.8198
2019-04-20T03:26:54.646Z,64.7578
2019-04-20T03:27:41.451Z,64.8005
2019-04-20T03:28:36.811Z,68.4581
2019-04-20T03:29:23.794Z,63.3860
2019-04-20T03:31:07.458Z,67.4495
2019-04-20T03:33:12.637Z,60.1068
2019-04-20T03:34:13.373Z,63.9399
2019-04-20T03:35:00.834Z,62.1714
2019-04-20T03:35:34.255Z,62.2126
2019-04-20T03:36:34.972Z,64.3549
2019-04-20T03:37:26.734Z,64.9638
2019-04-20T03:38:10.665Z,60.0107
2019-04-20T03:38:57.393Z,60.5417
2019-04-20T03:39:51.434Z,61.7243
2019-04-20T03:40:37.332Z,64.4663
2019-04-20T03:41:25.485Z,61.7655
2019-04-20T03:42:09.337Z,59.6551
2019-04-20T03:42:56.984Z,64.3839
2019-04-20T03:43:45.684Z,61.1002
2019-04-20T03:44:34.202Z,67.7211
2019-04-20T03:45:25.412Z,63.8025
2019-04-20T03:46:17.427Z,66.1418
2019-04-20T03:47:08.799Z,69.5506
2019-04-20T03:48:11.588Z,67.2587
2019-04-20T03:49:05.899Z,67.9500
2019-04-20T03:50:02.631Z,65.0843
2019-04-20T03:50:53.272Z,63.7568
2019-04-20T03:51:46.967Z,60.7172
2019-04-20T03:52:34.273Z,60.2167
2019-04-20T03:53:29.806Z,59.8383
2019-04-20T03:54:13.537Z,60.5615
2019-04-20T03:55:12.836Z,57.6257
2019-04-20T03:55:58.448Z,57.9187
2019-04-20T03:56:49.579Z,59.7498
2019-04-20T03:57:49.790Z,61.7975
2019-04-20T03:58:33.521Z,65.5085
2019-04-20T03:59:21.268Z,58.9761
2019-04-20T04:00:16.304Z,63.8895
2019-04-20T04:01:12.641Z,64.6632
2019-04-20T04:03:09.352Z,66.2562
2019-04-20T04:03:53.262Z,58.9899
2019-04-20T04:04:39.074Z,59.4842
2019-04-20T04:05:27.534Z,58.0301
2019-04-20T04:06:12.923Z,66.1051
2019-04-20T04:06:57.735Z,58.3490
2019-04-20T04:07:55.872Z,65.6657
2019-04-20T04:08:36.431Z,56.9024
2019-04-20T04:09:30.538Z,59.4751
2019-04-20T04:10:25.892Z,57.1145
2019-04-20T04:11:21.857Z,63.6179
2019-04-20T04:12:10.110Z,62.0752
2019-04-20T04:12:49.830Z,57.3022
2019-04-20T04:13:39.762Z,60.7126
2019-04-20T04:14:26.145Z,58.6480
2019-04-20T04:15:12.709Z,58.3001
2019-04-20T04:16:06.107Z,61.0330
2019-04-20T04:16:54.721Z,63.0610
2019-04-20T04:17:44.995Z,51.4412
2019-04-20T04:18:39.483Z,55.3018
2019-04-20T04:19:30.236Z,56.5499
2019-04-20T04:20:19.711Z,54.9065
2019-04-20T04:21:12.885Z,56.8887
2019-04-20T04:22:12.619Z,60.7263
2019-04-20T04:23:10.479Z,60.8591
2019-04-20T04:23:58.792Z,60.2304
2019-04-20T04:24:52.177Z,59.8566
2019-04-20T04:25:42.743Z,61.6907
2019-04-20T04:26:34.163Z,57.4701
2019-04-20T04:27:33.598Z,60.4242
2019-04-20T04:28:13.767Z,60.8438
2019-04-20T04:29:13.559Z,53.5897
2019-04-20T04:30:04.306Z,55.4650
2019-04-20T04:30:58.132Z,55.2651
2019-04-20T04:31:59.538Z,54.1482
2019-04-20T04:33:03.101Z,64.8905
2019-04-20T04:34:22.914Z,64.2878
2019-04-20T04:35:10.623Z,64.1184
2019-04-20T04:36:00.372Z,62.4460
2019-04-20T04:36:59.347Z,63.1052
2019-04-20T04:37:47.118Z,63.3844
2019-04-20T04:38:42.464Z,60.5051
2019-04-20T04:39:30.920Z,62.1042
2019-04-20T04:40:36.979Z,60.8591
2019-04-20T04:41:27.086Z,64.5609
2019-04-20T04:42:11.572Z,60.9506
2019-04-20T04:42:57.891Z,69.1340
2019-04-20T04:43:49.445Z,65.5909
2019-04-20T04:44:34.333Z,61.1322
2019-04-20T04:45:15.509Z,61.4130
2019-04-20T04:46:04.219Z,62.8962
2019-04-20T04:46:57.586Z,60.0717
2019-04-20T04:47:42.908Z,62.3499
2019-04-20T04:48:35.010Z,69.8619
2019-04-20T04:49:28.440Z,60.7569
2019-04-20T04:50:17.566Z,67.7928
2019-04-20T04:51:12.880Z,59.8779
2019-04-20T04:52:05.197Z,59.9191
2019-04-20T04:52:58.848Z,61.2009
2019-04-20T04:53:47.955Z,60.7202
2019-04-20T04:54:42.281Z,59.3790
2019-04-20T04:55:34.810Z,58.7579
2019-04-20T04:56:18.065Z,64.3412
2019-04-20T04:57:05.339Z,63.4043
2019-04-20T04:57:51.601Z,61.2528
2019-04-20T04:58:38.491Z,66.9841
2019-04-20T04:59:25.690Z,70.9255
2019-04-20T05:00:17.939Z,67.1015
2019-04-20T05:01:08.080Z,66.3920
2019-04-20T05:01:58.152Z,64.2145
2019-04-20T05:02:50.592Z,62.2217
2019-04-20T05:04:48.531Z,62.8122
2019-04-20T05:05:35.964Z,67.9255
2019-04-20T05:06:29.221Z,60.1633
2019-04-20T05:07:15.190Z,65.4643
2019-04-20T05:08:02.748Z,60.3372
2019-04-20T05:08:51.445Z,61.7197
2019-04-20T05:09:39.846Z,65.8030
2019-04-20T05:10:28.677Z,59.9985
2019-04-20T05:11:15.310Z,62.7253
2019-04-20T05:12:07.247Z,62.7207
2019-04-20T05:12:54.782Z,60.9506
2019-04-20T05:13:50.053Z,58.0942
2019-04-20T05:14:46.060Z,60.0702
2019-04-20T05:15:41.734Z,59.0143
2019-04-20T05:16:39.830Z,60.5844
2019-04-20T05:17:32.392Z,65.1560
2019-04-20T05:18:19.484Z,66.9017
2019-04-20T05:19:15.890Z,68.2551
2019-04-20T05:20:02.594Z,68.5084
2019-04-20T05:21:00.312Z,68.1376
2019-04-20T05:21:57.439Z,69.3446
2019-04-20T05:22:41.662Z,68.4535
2019-04-20T05:23:24.308Z,72.1920
2019-04-20T05:24:20.768Z,73.1319
2019-04-20T05:25:11.928Z,74.4442
2019-04-20T05:26:08.488Z,74.5556
2019-04-20T05:27:01.738Z,76.6384
2019-04-20T05:27:51.871Z,77.6516
2019-04-20T05:28:33.435Z,76.2509
2019-04-20T05:29:19.688Z,73.5149
2019-04-20T05:30:05.695Z,74.0566
2019-04-20T05:30:57.622Z,69.2576
2019-04-20T05:31:49.391Z,75.0454
2019-04-20T05:32:44.596Z,76.8322
2019-04-20T05:33:42.320Z,79.0295
2019-04-20T05:34:40.056Z,78.5077
2019-04-20T05:35:33.636Z,74.6410
2019-04-20T05:36:19.302Z,73.9590
2019-04-20T05:37:20.943Z,72.5536
2019-04-20T05:38:11.923Z,73.6751
2019-04-20T05:38:58.223Z,73.4707
2019-04-20T05:39:50.122Z,71.2810
2019-04-20T05:40:39.026Z,71.1910
2019-04-20T05:41:29.462Z,75.5352
2019-04-20T05:42:23.434Z,74.6319
2019-04-20T05:43:10.674Z,75.1614
2019-04-20T05:44:02.107Z,77.2381
2019-04-20T05:44:55.936Z,79.6612
2019-04-20T05:45:45.345Z,81.0574
2019-04-20T05:46:40.940Z,81.8769
2019-04-20T05:47:33.460Z,80.0687
2019-04-20T05:48:19.701Z,80.8316
2019-04-20T05:49:20.683Z,79.9680
2019-04-20T05:50:01.013Z,78.7442
2019-04-20T05:50:58.729Z,76.2036
2019-04-20T05:51:49.905Z,78.7457
2019-04-20T05:52:50.207Z,77.6974
2019-04-20T05:53:33.973Z,77.4807
2019-04-20T05:54:31.096Z,75.8618
2019-04-20T05:55:20.921Z,77.5174
2019-04-20T05:56:07.296Z,74.4350
2019-04-20T05:57:07.744Z,78.2147
2019-04-20T05:58:00.707Z,77.9019
2019-04-20T05:58:45.050Z,77.8607
2019-04-20T05:59:45.412Z,76.9039
2019-04-20T06:00:33.561Z,77.3114
2019-04-20T06:01:20.224Z,77.6043
2019-04-20T06:02:15.998Z,76.5301
2019-04-20T06:03:01.724Z,76.3317
2019-04-20T06:03:53.873Z,76.9192
2019-04-20T06:05:01.799Z,76.6110
2019-04-20T06:05:48.877Z,75.9518
2019-04-20T06:06:33.147Z,75.0195
2019-04-20T06:07:25.205Z,74.5037
2019-04-20T06:08:15.601Z,75.8419
2019-04-20T06:09:11.074Z,76.6705
2019-04-20T06:09:59.671Z,76.1410
2019-04-20T06:10:52.146Z,75.1461
2019-04-20T06:11:44.211Z,74.9172
2019-04-20T06:12:35.751Z,75.0332
2019-04-20T06:13:17.362Z,75.6954
2019-04-20T06:14:07.034Z,75.8114
2019-04-20T06:15:05.585Z,74.7662
2019-04-20T06:15:53.958Z,76.9085
2019-04-20T06:16:56.929Z,76.9589
2019-04-20T06:17:46.199Z,75.1064
2019-04-20T06:18:32.736Z,75.4986
2019-04-20T06:19:39.548Z,76.4050
2019-04-20T06:20:21.538Z,77.4548
2019-04-20T06:21:23.509Z,73.8003
2019-04-20T06:22:04.695Z,73.5424
2019-04-20T06:23:01.346Z,75.0149
2019-04-20T06:23:53.202Z,74.3801
2019-04-20T06:24:44.904Z,72.5826
2019-04-20T06:25:54.818Z,74.6548
2019-04-20T06:27:11.044Z,72.5505
2019-04-20T06:28:02.066Z,72.7291
2019-04-20T06:28:49.012Z,73.3455
2019-04-20T06:29:48.360Z,76.0861
2019-04-20T06:30:30.893Z,73.4508
2019-04-20T06:31:34.182Z,73.4646
2019-04-20T06:32:21.487Z,74.6105
2019-04-20T06:33:26.267Z,75.3567
2019-04-20T06:34:20.136Z,73.4051
2019-04-20T06:35:00.546Z,77.1069
2019-04-20T06:36:48.589Z,62.1042
2019-04-20T06:37:36.268Z,67.8477
2019-04-20T06:38:46.833Z,68.7831
2019-04-20T06:39:20.301Z,57.9095
2019-04-20T06:40:31.977Z,64.1123
2019-04-20T06:41:16.507Z,69.3172
2019-04-20T06:42:08.429Z,60.3403
2019-04-20T06:42:39.708Z,71.2352
2019-04-20T06:43:40.982Z,66.6026
2019-04-20T06:44:32.260Z,60.5920
2019-04-20T06:45:27.719Z,69.0654
2019-04-20T06:46:20.244Z,70.9651
2019-04-20T06:48:01.035Z,61.3062
2019-04-20T06:48:59.248Z,72.1050
2019-04-20T06:49:36.816Z,69.1890
2019-04-20T06:50:29.159Z,66.5614
2019-04-20T06:51:23.364Z,63.3799
2019-04-20T06:52:23.145Z,67.3075
2019-04-20T06:53:12.925Z,66.3508
2019-04-20T06:53:49.645Z,70.6401
2019-04-20T06:54:48.726Z,75.1736
2019-04-20T06:55:43.006Z,70.9300
2019-04-20T06:56:29.403Z,62.8367
2019-04-20T06:57:25.580Z,71.6808
2019-04-20T06:58:31.903Z,70.4128
2019-04-20T06:59:12.523Z,60.5005
2019-04-20T07:00:01.220Z,56.9390
2019-04-20T07:00:46.462Z,58.6801
2019-04-20T07:01:48.969Z,57.2732
2019-04-20T07:02:38.650Z,57.5677
2019-04-20T07:03:36.079Z,58.4360
2019-04-20T07:04:33.533Z,59.2157
2019-04-20T07:05:18.965Z,59.7314
2019-04-20T07:06:16.854Z,61.8555
2019-04-20T07:06:56.588Z,62.3178
2019-04-20T07:07:43.352Z,60.5142
2019-04-20T07:08:56.647Z,56.1074
2019-04-20T07:09:31.124Z,60.3876
2019-04-20T07:10:19.515Z,56.5148
2019-04-20T07:11:11.358Z,56.4782
2019-04-20T07:11:59.499Z,57.8607
2019-04-20T07:12:46.960Z,63.5416
2019-04-20T07:13:37.405Z,55.3841
2019-04-20T07:14:19.128Z,56.3455
2019-04-20T07:15:16.316Z,57.2335
2019-04-20T07:16:15.836Z,55.4833
2019-04-20T07:17:10.733Z,56.2753
2019-04-20T07:17:57.023Z,53.9498
2019-04-20T07:18:50.922Z,51.6197
2019-04-20T07:19:36.254Z,54.2657
2019-04-20T07:20:27.813Z,60.8270
2019-04-20T07:21:37.502Z,59.1150
2019-04-20T07:22:25.296Z,53.0709
2019-04-20T07:23:18.432Z,58.6297
2019-04-20T07:24:03.564Z,59.7406
2019-04-20T07:24:54.796Z,55.8999
2019-04-20T07:25:42.228Z,56.6598
2019-04-20T07:26:37.270Z,51.9631
2019-04-20T07:27:23.965Z,54.0688
2019-04-20T07:28:19.697Z,51.4794
2019-04-20T07:29:13.592Z,54.9569
2019-04-20T07:29:58.952Z,52.1736
2019-04-20T07:30:45.406Z,55.3613
2019-04-20T07:31:39.347Z,51.4321
2019-04-20T07:32:38.781Z,59.9435
2019-04-20T07:33:28.348Z,53.4844
2019-04-20T07:34:15.836Z,52.2103
2019-04-20T07:35:09.817Z,52.8527
2019-04-20T07:35:56.218Z,51.8273
2019-04-20T07:37:04.856Z,52.1843
2019-04-20T07:38:41.834Z,54.2931
2019-04-20T07:39:28.079Z,53.2372
2019-04-20T07:40:23.170Z,53.9879
2019-04-20T07:41:12.938Z,52.9519
2019-04-20T07:42:10.787Z,53.0266
2019-04-20T07:42:57.179Z,53.4752
2019-04-20T07:43:52.918Z,54.2885
2019-04-20T07:44:42.553Z,57.7829
2019-04-20T07:45:30.861Z,52.4254
2019-04-20T07:46:37.541Z,53.1044
2019-04-20T07:47:23.713Z,52.4819
2019-04-20T07:48:54.303Z,53.1823
2019-04-20T07:49:46.991Z,55.2087
2019-04-20T07:50:32.245Z,53.0205
2019-04-20T07:51:17.347Z,54.7601
2019-04-20T07:52:01.658Z,52.0699
2019-04-20T07:53:01.510Z,54.4732
2019-04-20T07:53:59.503Z,54.3816
2019-04-20T07:55:12.179Z,53.3425
2019-04-20T07:55:58.128Z,53.1029
2019-04-20T07:56:37.659Z,54.2885
2019-04-20T07:57:26.694Z,55.6680
2019-04-20T07:58:13.323Z,59.0143
2019-04-20T07:58:55.220Z,55.1080
2019-04-20T08:00:01.141Z,53.3791
2019-04-20T08:01:02.551Z,53.7041
2019-04-20T08:01:56.123Z,53.8094
2019-04-20T08:02:45.058Z,54.0887
2019-04-20T08:03:33.783Z,54.4488
2019-04-20T08:04:20.873Z,54.6044
2019-04-20T08:05:08.491Z,54.2306
2019-04-20T08:05:57.269Z,54.0383
2019-04-20T08:06:45.434Z,54.4121
2019-04-20T08:07:39.167Z,53.9223
2019-04-20T08:08:32.661Z,53.7163
2019-04-20T08:09:21.989Z,54.3954
2019-04-20T08:10:06.368Z,52.5368
2019-04-20T08:11:12.362Z,53.8598
2019-04-20T08:12:14.199Z,52.7184
2019-04-20T08:13:02.239Z,57.8546
2019-04-20T08:13:51.211Z,52.9702
2019-04-20T08:14:46.801Z,57.1878
2019-04-20T08:15:42.742Z,53.7179
2019-04-20T08:16:33.595Z,52.6406
2019-04-20T08:17:21.317Z,52.4361
2019-04-20T08:18:08.845Z,53.9101
2019-04-20T08:18:59.469Z,53.5515
2019-04-20T08:19:48.483Z,53.5058
2019-04-20T08:20:41.572Z,56.8246
2019-04-20T08:21:35.174Z,53.5576
2019-04-20T08:22:26.758Z,52.9946
2019-04-20T08:23:17.217Z,52.4804
2019-04-20T08:24:57.681Z,52.4865
2019-04-20T08:25:44.561Z,52.6513
2019-04-20T08:26:31.099Z,52.7016
2019-04-20T08:27:17.941Z,53.3379
2019-04-20T08:28:13.560Z,53.7270
2019-04-20T08:29:03.347Z,52.5643
2019-04-20T08:29:59.022Z,51.1757
2019-04-20T08:30:58.236Z,51.1345
2019-04-20T08:31:46.233Z,52.3888
2019-04-20T08:33:35.017Z,50.0038
2019-04-20T08:34:33.640Z,49.2897
2019-04-20T08:35:23.919Z,52.8420
2019-04-20T08:36:11.872Z,50.4845
2019-04-20T08:37:01.407Z,49.8116
2019-04-20T08:38:14.885Z,50.0008
2019-04-20T08:39:45.122Z,54.1344
2019-04-20T08:40:31.408Z,50.0496
2019-04-20T08:41:17.939Z,50.9880
2019-04-20T08:42:10.192Z,51.8212
2019-04-20T08:43:11.929Z,52.6452
2019-04-20T08:45:04.174Z,49.1173
2019-04-20T08:45:41.702Z,50.3929
2019-04-20T08:46:34.415Z,49.4865
2019-04-20T08:47:27.385Z,49.1341
2019-04-20T08:48:17.337Z,48.4855
2019-04-20T08:49:08.374Z,48.7602
2019-04-20T08:50:03.811Z,47.6844
2019-04-20T08:50:50.667Z,47.8523
2019-04-20T08:52:55.634Z,49.9779
2019-04-20T08:53:27.637Z,49.2226
2019-04-20T08:54:14.127Z,47.3350
2019-04-20T08:55:04.974Z,49.1524
2019-04-20T08:55:50.091Z,48.4382
2019-04-20T08:56:36.001Z,51.0430
2019-04-20T08:57:13.410Z,47.8859
2019-04-20T08:58:00.012Z,46.6407
2019-04-20T08:58:46.382Z,47.4144
2019-04-20T08:59:35.052Z,50.8110
2019-04-20T09:00:29.311Z,47.3960
2019-04-20T09:01:20.226Z,52.0043
2019-04-20T09:02:09.013Z,45.9022
2019-04-20T09:03:06.737Z,47.4632
2019-04-20T09:04:00.199Z,46.8544
2019-04-20T09:04:49.037Z,47.2206
2019-04-20T09:05:42.464Z,49.4514
2019-04-20T09:06:36.463Z,49.1676
2019-04-20T09:07:20.234Z,46.2547
2019-04-20T09:08:14.632Z,47.0024
2019-04-20T09:09:20.704Z,46.8772
2019-04-20T09:10:16.646Z,45.5177
2019-04-20T09:11:04.237Z,48.4947
2019-04-20T09:11:54.282Z,47.5517
2019-04-20T09:12:40.792Z,45.6794
2019-04-20T09:13:26.954Z,45.6046
2019-04-20T09:14:09.345Z,45.0523
2019-04-20T09:14:57.327Z,44.5991
2019-04-20T09:15:44.736Z,45.4032
2019-04-20T09:16:40.901Z,44.2008
2019-04-20T09:17:27.218Z,46.7445
2019-04-20T09:18:22.052Z,43.9841
2019-04-20T09:19:09.411Z,45.3223
2019-04-20T09:20:04.710Z,45.5909
2019-04-20T09:20:55.841Z,45.1835
2019-04-20T09:21:48.302Z,47.9896
2019-04-20T09:22:40.879Z,46.0456
2019-04-20T09:23:36.568Z,43.4211
2019-04-20T09:24:38.175Z,43.2517
2019-04-20T09:25:46.867Z,43.6652
2019-04-20T09:26:16.182Z,45.9678
2019-04-20T09:27:04.541Z,44.4205
2019-04-20T09:27:50.188Z,45.7481
2019-04-20T09:28:40.546Z,42.1073
2019-04-20T09:29:35.750Z,42.6795
2019-04-20T09:30:30.621Z,45.9434
2019-04-20T09:31:22.651Z,44.9043
2019-04-20T09:32:20.898Z,48.2383
2019-04-20T09:33:09.844Z,41.5579
2019-04-20T09:34:01.517Z,43.4958
2019-04-20T09:34:54.342Z,45.3407
2019-04-20T09:35:45.880Z,41.8555
2019-04-20T09:36:35.289Z,43.8529
2019-04-20T09:37:27.893Z,41.9791
2019-04-20T09:38:15.512Z,42.7222
2019-04-20T09:39:01.083Z,43.1647
2019-04-20T09:40:10.935Z,41.9348
2019-04-20T09:40:50.771Z,44.5335
2019-04-20T09:41:50.784Z,42.1042
2019-04-20T09:42:18.327Z,40.3876
2019-04-20T09:43:04.707Z,43.4806
2019-04-20T09:43:52.480Z,40.6027
2019-04-20T09:44:42.669Z,42.5284
2019-04-20T09:45:38.200Z,40.6241
2019-04-20T09:46:24.277Z,40.8225
2019-04-20T09:47:12.340Z,41.8845
2019-04-20T09:48:00.561Z,42.8580
2019-04-20T09:48:55.702Z,41.5442
2019-04-20T09:49:54.127Z,40.9232
2019-04-20T09:50:56.101Z,41.9898
2019-04-20T09:51:40.070Z,41.8463
2019-04-20T09:52:29.110Z,42.6810
2019-04-20T09:53:24.808Z,42.6719
2019-04-20T09:54:18.630Z,42.4140
2019-04-20T09:55:07.842Z,40.2029
2019-04-20T09:56:01.928Z,39.2981
2019-04-20T09:56:55.593Z,44.3610
2019-04-20T09:57:46.709Z,40.5890
2019-04-20T09:58:31.638Z,40.8942
2019-04-20T09:59:28.387Z,40.3311
2019-04-20T10:00:19.319Z,43.3524
2019-04-20T10:01:08.423Z,40.3861
2019-04-20T10:01:50.814Z,44.3091
2019-04-20T10:02:39.415Z,47.3503
2019-04-20T10:03:27.162Z,41.2696
2019-04-20T10:04:13.276Z,40.2823
2019-04-20T10:05:00.279Z,39.3484
2019-04-20T10:05:47.602Z,39.2157
2019-04-20T10:06:36.146Z,40.3723
2019-04-20T10:07:26.152Z,40.2960
2019-04-20T10:08:15.421Z,41.1795
2019-04-20T10:09:03.865Z,40.1938
2019-04-20T10:09:52.078Z,38.0102
2019-04-20T10:10:42.665Z,39.6872
2019-04-20T10:11:31.840Z,37.1817
2019-04-20T10:12:19.641Z,40.6989
2019-04-20T10:13:07.347Z,37.7768
2019-04-20T10:13:54.383Z,39.0814
2019-04-20T10:14:42.436Z,38.2025
2019-04-20T10:15:30.958Z,41.8250
2019-04-20T10:16:17.799Z,40.0488
2019-04-20T10:17:05.690Z,37.3098
2019-04-20T10:17:53.942Z,40.1801
2019-04-20T10:18:45.486Z,37.1954
2019-04-20T10:19:35.610Z,40.0885
2019-04-20T10:20:29.796Z,42.6612
2019-04-20T10:21:15.888Z,37.7600
2019-04-20T10:22:02.562Z,39.7726
2019-04-20T10:22:48.911Z,40.2914
2019-04-20T10:23:36.529Z,34.6258
2019-04-20T10:24:24.293Z,34.4472
2019-04-20T10:25:10.878Z,37.5433
2019-04-20T10:25:58.442Z,37.3312
2019-04-20T10:26:46.294Z,35.0790
2019-04-20T10:27:32.782Z,36.3577
2019-04-20T10:28:19.473Z,39.2004
2019-04-20T10:29:05.791Z,38.6801
2019-04-20T10:29:53.467Z,38.0209
2019-04-20T10:30:40.878Z,38.6526
2019-04-20T10:31:28.510Z,39.4385
2019-04-20T10:32:16.045Z,37.4319
2019-04-20T10:33:05.664Z,38.4192
2019-04-20T10:33:53.466Z,38.6389
2019-04-20T10:34:40.926Z,37.9202
2019-04-20T10:35:27.594Z,38.2666
2019-04-20T10:36:15.315Z,37.5296
2019-04-20T10:37:01.739Z,40.1343
2019-04-20T10:37:49.325Z,37.9385